Time;durP1;ratioP1;P1;durP2;ratioP2;P2;SDS_P1;SDS_P2;PMS_P1;PMS_P2;Temp;Humidity;BMP_temperature;BMP_pressure;BME280_temperature;BME280_humidity;BME280_pressure;Samples;Min_cycle;Max_cycle;Signal;HPM_P1;HPM_P2
2022/04/23 00:01:45;;;;;;;2.87;1.90;;;;;;;;;;4999815;28;20084;-61
2022/04/23 00:04:12;;;;;;;6.97;2.30;;;;;;;;;;5002442;28;20723;-61
2022/04/23 00:06:40;;;;;;;3.83;2.17;;;;;;;;;;5002972;28;20166;-62
2022/04/23 00:09:06;;;;;;;3.95;2.22;;;;;;;;;;5003819;28;20137;-61
2022/04/23 00:11:32;;;;;;;3.95;2.30;;;;;;;;;;5003952;28;20081;-61
2022/04/23 00:14:02;;;;;;;3.53;2.25;;;;;;;;;;5000001;28;20137;-61
2022/04/23 00:16:28;;;;;;;6.10;2.30;;;;;;;;;;5003115;28;20128;-61
2022/04/23 00:18:55;;;;;;;5.53;2.45;;;;;;;;;;4999123;28;20341;-61
2022/04/23 00:21:28;;;;;;;5.20;2.47;;;;;;;;;;4997420;28;20517;-61
2022/04/23 00:23:54;;;;;;;4.43;2.13;;;;;;;;;;5004197;28;20120;-61
2022/04/23 00:26:21;;;;;;;4.70;2.33;;;;;;;;;;4997913;28;20132;-61
2022/04/23 00:28:47;;;;;;;3.00;2.13;;;;;;;;;;5004423;28;20156;-61
2022/04/23 00:31:14;;;;;;;5.72;2.17;;;;;;;;;;5001017;28;20561;-61
2022/04/23 00:33:41;;;;;;;3.92;2.42;;;;;;;;;;4999409;28;20081;-61
2022/04/23 00:36:10;;;;;;;3.78;2.30;;;;;;;;;;4997851;28;20050;-61
2022/04/23 00:38:40;;;;;;;2.90;1.92;;;;;;;;;;4998154;28;20058;-62
2022/04/23 00:41:07;;;;;;;8.38;2.20;;;;;;;;;;5002674;28;20081;-61
2022/04/23 00:43:37;;;;;;;4.72;2.05;;;;;;;;;;4999203;28;20455;-61
2022/04/23 00:46:03;;;;;;;3.13;2.28;;;;;;;;;;5003152;28;20253;-61
2022/04/23 00:48:30;;;;;;;6.23;2.33;;;;;;;;;;5005980;28;20062;-61
2022/04/23 00:50:58;;;;;;;;;;;;;;;;;;4999754;28;20392;-61
2022/04/23 00:53:25;;;;;;;4.88;2.00;;;;;;;;;;4998784;28;20344;-61
2022/04/23 00:55:54;;;;;;;3.90;1.95;;;;;;;;;;5003380;28;20153;-61
2022/04/23 00:58:23;;;;;;;4.07;2.13;;;;;;;;;;5001636;28;20552;-61
2022/04/23 01:00:49;;;;;;;5.40;2.63;;;;;;;;;;4999023;28;20137;-61
2022/04/23 01:03:16;;;;;;;11.18;2.10;;;;;;;;;;5001398;28;20053;-61
2022/04/23 01:05:46;;;;;;;5.03;2.10;;;;;;;;;;5000147;28;20047;-61
2022/04/23 01:08:15;;;;;;;4.72;2.00;;;;;;;;;;5002667;28;20128;-61
2022/04/23 01:10:42;;;;;;;3.10;2.00;;;;;;;;;;5000575;28;20084;-61
2022/04/23 01:13:16;;;;;;;2.40;1.83;;;;;;;;;;4998865;28;20081;-61
2022/04/23 01:16:02;;;;;;;2.95;1.90;;;;;;;;;;4997753;28;20141;-61
2022/04/23 01:18:29;;;;;;;4.97;2.10;;;;;;;;;;5004907;28;20057;-61
2022/04/23 01:20:56;;;;;;;3.38;2.00;;;;;;;;;;4998644;28;20585;-60
2022/04/23 01:23:23;;;;;;;7.07;2.20;;;;;;;;;;4994507;28;20221;-61
2022/04/23 01:25:56;;;;;;;3.38;2.05;;;;;;;;;;5003461;28;20544;-61
2022/04/23 01:28:24;;;;;;;6.18;2.00;;;;;;;;;;5000483;28;20130;-61
2022/04/23 01:30:51;;;;;;;5.47;2.35;;;;;;;;;;4998432;28;20089;-61
2022/04/23 01:33:21;;;;;;;6.05;2.20;;;;;;;;;;4999894;28;20517;-61
2022/04/23 01:35:47;;;;;;;5.70;1.85;;;;;;;;;;5004206;28;20524;-61
2022/04/23 01:38:20;;;;;;;3.83;2.10;;;;;;;;;;5003839;28;20648;-61
2022/04/23 01:40:47;;;;;;;3.67;2.13;;;;;;;;;;4999469;28;20140;-61
2022/04/23 01:43:14;;;;;;;6.93;2.15;;;;;;;;;;4998883;28;20081;-61
2022/04/23 01:45:40;;;;;;;3.03;1.90;;;;;;;;;;5000559;28;20593;-61
2022/04/23 01:48:14;;;;;;;3.47;1.98;;;;;;;;;;4999136;28;20046;-60
2022/04/23 01:50:40;;;;;;;4.03;1.73;;;;;;;;;;5000143;28;20140;-60
2022/04/23 01:53:07;;;;;;;5.70;1.98;;;;;;;;;;4999061;28;20051;-60
2022/04/23 01:55:36;;;;;;;6.32;1.77;;;;;;;;;;4980573;28;20146;-60
2022/04/23 01:58:03;;;;;;;3.00;1.88;;;;;;;;;;5001904;28;20128;-60
2022/04/23 02:00:29;;;;;;;2.72;1.85;;;;;;;;;;4999811;28;20129;-61
2022/04/23 02:02:57;;;;;;;2.05;1.30;;;;;;;;;;4999776;28;20104;-61
2022/04/23 02:05:24;;;;;;;2.00;1.50;;;;;;;;;;4998013;28;20053;-61
2022/04/23 02:07:50;;;;;;;3.55;1.60;;;;;;;;;;4998087;28;20078;-60
2022/04/23 02:10:20;;;;;;;3.58;1.63;;;;;;;;;;5000037;28;20537;-61
2022/04/23 02:12:46;;;;;;;2.13;1.70;;;;;;;;;;4998202;28;20785;-60
2022/04/23 02:15:14;;;;;;;2.90;1.60;;;;;;;;;;4999294;28;20158;-61
2022/04/23 02:17:42;;;;;;;2.75;1.38;;;;;;;;;;4993361;28;20109;-60
2022/04/23 02:20:12;;;;;;;1.65;1.50;;;;;;;;;;5001265;28;20130;-60
2022/04/23 02:22:38;;;;;;;2.63;1.60;;;;;;;;;;4998330;28;20060;-61
2022/04/23 02:25:12;;;;;;;4.70;1.35;;;;;;;;;;5000162;28;20098;-61
2022/04/23 02:27:40;;;;;;;1.95;1.30;;;;;;;;;;5000609;28;20087;-60
2022/04/23 02:30:06;;;;;;;;;;;;;;;;;;4998059;28;20129;-60
2022/04/23 02:32:33;;;;;;;2.40;1.30;;;;;;;;;;4997430;28;19932;-60
2022/04/23 02:35:00;;;;;;;3.67;1.13;;;;;;;;;;5002134;28;20153;-61
2022/04/23 02:37:32;;;;;;;1.90;1.20;;;;;;;;;;5001449;28;20129;-61
2022/04/23 02:39:59;;;;;;;1.92;1.10;;;;;;;;;;4994921;28;20668;-61
2022/04/23 02:42:25;;;;;;;3.13;1.20;;;;;;;;;;4996864;28;20177;-60
2022/04/23 02:44:52;;;;;;;3.03;1.20;;;;;;;;;;4997638;28;20088;-60
2022/04/23 02:47:19;;;;;;;1.97;1.27;;;;;;;;;;4994567;28;20050;-60
2022/04/23 02:49:45;;;;;;;1.70;0.90;;;;;;;;;;4995758;28;20168;-60
2022/04/23 02:52:11;;;;;;;1.25;1.00;;;;;;;;;;4999390;28;20134;-60
2022/04/23 02:54:45;;;;;;;3.20;0.98;;;;;;;;;;5000842;28;20148;-61
2022/04/23 02:57:12;;;;;;;2.78;1.10;;;;;;;;;;4995536;28;20218;-61
2022/04/23 02:59:40;;;;;;;1.58;1.00;;;;;;;;;;5001396;28;20179;-60
2022/04/23 03:02:06;;;;;;;1.17;1.00;;;;;;;;;;4998080;28;20173;-60
2022/04/23 03:04:33;;;;;;;5.38;1.58;;;;;;;;;;5000524;28;20522;-60
2022/04/23 03:07:02;;;;;;;1.10;0.75;;;;;;;;;;4995539;28;20553;-60
2022/04/23 03:09:29;;;;;;;0.80;0.80;;;;;;;;;;5002956;28;20137;-60
2022/04/23 03:11:55;;;;;;;1.10;0.82;;;;;;;;;;5001978;28;20168;-60
2022/04/23 03:14:28;;;;;;;1.02;0.80;;;;;;;;;;5000720;28;20464;-60
2022/04/23 03:16:55;;;;;;;3.03;1.20;;;;;;;;;;5003248;28;20104;-60
2022/04/23 03:19:21;;;;;;;2.33;1.33;;;;;;;;;;5004187;28;20329;-61
2022/04/23 03:21:56;;;;;;;2.80;1.05;;;;;;;;;;5002453;28;20129;-60
2022/04/23 03:24:22;;;;;;;2.53;0.90;;;;;;;;;;5003317;28;20152;-61
2022/04/23 03:26:49;;;;;;;2.25;1.23;;;;;;;;;;4997040;28;20580;-60
2022/04/23 03:29:22;;;;;;;3.30;0.73;;;;;;;;;;5002455;28;20090;-60
2022/04/23 03:31:50;;;;;;;2.42;1.20;;;;;;;;;;4995433;28;20136;-60
2022/04/23 03:34:18;;;;;;;;;;;;;;;;;;5002478;28;20125;-60
2022/04/23 03:36:47;;;;;;;1.52;1.00;;;;;;;;;;5000455;28;20350;-60
2022/04/23 03:39:15;;;;;;;;;;;;;;;;;;5001058;28;20050;-61
2022/04/23 03:41:41;;;;;;;2.50;1.00;;;;;;;;;;4998909;28;20499;-61
2022/04/23 03:44:08;;;;;;;8.87;1.40;;;;;;;;;;5000235;28;20132;-61
2022/04/23 03:46:34;;;;;;;2.22;0.85;;;;;;;;;;5001383;28;20136;-60
2022/04/23 03:49:01;;;;;;;4.43;1.67;;;;;;;;;;4999026;28;20058;-60
2022/04/23 03:51:34;;;;;;;2.30;1.08;;;;;;;;;;5003923;28;20134;-60
2022/04/23 03:54:01;;;;;;;1.60;0.90;;;;;;;;;;5002222;28;20118;-60
2022/04/23 03:56:28;;;;;;;3.73;1.10;;;;;;;;;;5002098;28;20077;-60
2022/04/23 03:58:56;;;;;;;0.82;0.82;;;;;;;;;;4983669;28;20472;-60
2022/04/23 04:01:22;;;;;;;1.52;1.13;;;;;;;;;;4983664;28;20169;-60
2022/04/23 04:03:49;;;;;;;2.28;1.15;;;;;;;;;;4980023;28;20130;-60
2022/04/23 04:06:16;;;;;;;2.15;1.10;;;;;;;;;;4980957;28;20134;-61
2022/04/23 04:08:42;;;;;;;2.70;1.05;;;;;;;;;;4980271;28;22056;-60
2022/04/23 04:11:09;;;;;;;1.20;0.90;;;;;;;;;;4981473;28;20434;-60
2022/04/23 04:13:42;;;;;;;2.90;1.10;;;;;;;;;;4980363;28;20050;-60
2022/04/23 04:16:09;;;;;;;0.97;0.87;;;;;;;;;;4982590;28;20082;-60
2022/04/23 04:18:35;;;;;;;1.73;1.17;;;;;;;;;;4961135;28;20047;-60
2022/04/23 04:21:02;;;;;;;2.03;0.87;;;;;;;;;;4980673;28;20101;-60
2022/04/23 04:23:28;;;;;;;2.75;1.00;;;;;;;;;;4981998;28;20334;-61
2022/04/23 04:25:55;;;;;;;2.22;1.00;;;;;;;;;;4978820;28;20137;-61
2022/04/23 04:28:22;;;;;;;3.05;0.88;;;;;;;;;;4982192;28;20596;-61
2022/04/23 04:33:35;;;;;;;5.43;1.20;;;;;;;;;;4983369;28;20133;-61
2022/04/23 04:36:02;;;;;;;1.40;0.90;;;;;;;;;;4983706;28;20058;-61
2022/04/23 04:38:30;;;;;;;3.17;1.57;;;;;;;;;;4980663;28;20078;-63
2022/04/23 04:40:56;;;;;;;1.48;0.90;;;;;;;;;;4981127;28;20064;-61
2022/04/23 04:43:23;;;;;;;1.35;0.70;;;;;;;;;;4982887;28;20134;-61
2022/04/23 04:45:49;;;;;;;2.03;1.00;;;;;;;;;;4979033;28;20059;-61
2022/04/23 04:48:22;;;;;;;1.77;1.10;;;;;;;;;;4982033;28;20050;-61
2022/04/23 04:50:48;;;;;;;5.03;0.73;;;;;;;;;;4984785;28;20586;-61
2022/04/23 04:53:15;;;;;;;2.85;0.50;;;;;;;;;;4981390;28;20082;-61
2022/04/23 04:55:41;;;;;;;1.38;0.70;;;;;;;;;;4977391;28;20570;-61
2022/04/23 04:58:08;;;;;;;0.90;0.70;;;;;;;;;;4996646;28;20129;-61
2022/04/23 05:00:35;;;;;;;2.33;0.90;;;;;;;;;;5005352;28;20390;-61
2022/04/23 05:03:02;;;;;;;0.57;0.55;;;;;;;;;;5003334;28;20077;-61
2022/04/23 05:05:28;;;;;;;0.82;0.60;;;;;;;;;;5003617;28;20145;-61
2022/04/23 05:07:55;;;;;;;1.33;0.80;;;;;;;;;;5001689;28;20081;-61
2022/04/23 05:10:28;;;;;;;1.90;0.75;;;;;;;;;;5003766;28;20093;-60
2022/04/23 05:12:55;;;;;;;0.77;0.60;;;;;;;;;;5005415;28;20702;-61
2022/04/23 05:15:21;;;;;;;0.70;0.70;;;;;;;;;;4999404;28;20832;-61
2022/04/23 05:17:47;;;;;;;1.60;0.70;;;;;;;;;;4999151;28;20549;-61
2022/04/23 05:20:14;;;;;;;1.83;0.82;;;;;;;;;;5000972;28;20137;-61
2022/04/23 05:22:40;;;;;;;3.20;1.08;;;;;;;;;;5002366;28;20089;-61
2022/04/23 05:25:08;;;;;;;;;;;;;;;;;;5003162;28;20081;-61
2022/04/23 05:27:34;;;;;;;1.08;0.70;;;;;;;;;;4999720;28;19938;-61
2022/04/23 05:30:01;;;;;;;1.10;0.75;;;;;;;;;;5003398;28;20394;-61
2022/04/23 05:32:35;;;;;;;3.03;0.80;;;;;;;;;;5002636;28;20465;-61
2022/04/23 05:35:05;;;;;;;0.60;0.60;;;;;;;;;;5000294;28;20124;-61
2022/04/23 05:37:32;;;;;;;2.05;0.88;;;;;;;;;;5004347;28;20468;-61
2022/04/23 05:40:01;;;;;;;1.85;0.80;;;;;;;;;;5005380;28;20081;-61
2022/04/23 05:42:28;;;;;;;1.10;0.70;;;;;;;;;;4998793;28;20088;-61
2022/04/23 05:44:54;;;;;;;0.95;0.70;;;;;;;;;;4997548;28;20140;-61
2022/04/23 05:47:27;;;;;;;0.50;0.50;;;;;;;;;;5000828;28;20082;-61
2022/04/23 05:49:53;;;;;;;1.08;0.70;;;;;;;;;;4999830;28;20054;-61
2022/04/23 05:52:20;;;;;;;1.67;0.75;;;;;;;;;;5003177;28;20134;-61
2022/04/23 05:54:46;;;;;;;0.65;0.50;;;;;;;;;;5000660;28;20050;-61
2022/04/23 05:57:13;;;;;;;1.02;0.60;;;;;;;;;;5003682;28;20141;-61
2022/04/23 05:59:43;;;;;;;0.95;0.60;;;;;;;;;;5000110;28;20093;-61
2022/04/23 06:02:13;;;;;;;1.60;0.85;;;;;;;;;;5002932;28;20073;-61
2022/04/23 06:04:40;;;;;;;1.05;0.80;;;;;;;;;;5003600;28;20050;-61
2022/04/23 06:07:07;;;;;;;0.73;0.70;;;;;;;;;;4996593;28;20497;-61
2022/04/23 06:09:34;;;;;;;0.57;0.55;;;;;;;;;;5002494;28;20137;-61
2022/04/23 06:12:00;;;;;;;0.50;0.50;;;;;;;;;;5000443;28;20462;-61
2022/04/23 06:14:27;;;;;;;0.85;0.73;;;;;;;;;;5000395;28;20601;-61
2022/04/23 06:16:56;;;;;;;0.90;0.70;;;;;;;;;;5002881;28;20145;-61
2022/04/23 06:19:22;;;;;;;0.60;0.60;;;;;;;;;;4995685;28;20133;-61
2022/04/23 06:21:50;;;;;;;1.38;0.90;;;;;;;;;;5001099;28;20591;-61
2022/04/23 06:24:23;;;;;;;1.38;0.68;;;;;;;;;;5000489;28;20094;-61
2022/04/23 06:26:50;;;;;;;1.15;0.70;;;;;;;;;;5000516;28;20546;-61
2022/04/23 06:29:16;;;;;;;2.08;0.80;;;;;;;;;;5004860;28;20462;-61
2022/04/23 06:31:46;;;;;;;1.23;0.90;;;;;;;;;;4986245;28;20161;-61
2022/04/23 06:34:13;;;;;;;1.33;0.93;;;;;;;;;;5003166;28;20107;-62
2022/04/23 06:36:40;;;;;;;1.05;0.60;;;;;;;;;;5000266;28;20090;-62
2022/04/23 06:39:10;;;;;;;0.77;0.73;;;;;;;;;;4999698;28;20129;-61
2022/04/23 06:41:36;;;;;;;0.98;0.80;;;;;;;;;;4997819;28;20138;-62
2022/04/23 06:44:03;;;;;;;1.15;0.60;;;;;;;;;;4999354;28;20129;-62
2022/04/23 06:46:33;;;;;;;0.65;0.65;;;;;;;;;;4999016;28;20522;-61
2022/04/23 06:49:05;;;;;;;1.40;0.75;;;;;;;;;;4994339;28;20137;-62
2022/04/23 06:51:31;;;;;;;1.42;0.80;;;;;;;;;;5001707;28;20486;-62
2022/04/23 06:54:01;;;;;;;0.52;0.52;;;;;;;;;;4995531;28;20164;-62
2022/04/23 06:56:28;;;;;;;0.77;0.60;;;;;;;;;;4999590;28;20074;-61
2022/04/23 06:58:54;;;;;;;1.33;0.55;;;;;;;;;;4998880;28;20050;-62
2022/04/23 07:01:21;;;;;;;1.73;0.47;;;;;;;;;;5001589;28;20096;-62
2022/04/23 07:03:47;;;;;;;0.57;0.50;;;;;;;;;;4999128;28;20046;-62
2022/04/23 07:06:15;;;;;;;2.80;1.20;;;;;;;;;;4996041;28;20133;-62
2022/04/23 07:08:44;;;;;;;2.17;0.50;;;;;;;;;;4998871;28;20081;-62
2022/04/23 07:11:13;;;;;;;3.05;0.90;;;;;;;;;;5000248;28;20125;-62
2022/04/23 07:13:39;;;;;;;0.75;0.60;;;;;;;;;;4998932;28;20173;-63
2022/04/23 07:16:14;;;;;;;1.33;0.80;;;;;;;;;;4997665;28;20096;-63
2022/04/23 07:18:40;;;;;;;0.40;0.40;;;;;;;;;;4997179;28;20051;-62
2022/04/23 07:21:07;;;;;;;1.00;0.90;;;;;;;;;;4997894;28;20093;-63
2022/04/23 07:26:25;;;;;;;1.08;0.60;;;;;;;;;;4994663;28;20133;-63
2022/04/23 07:28:53;;;;;;;1.90;0.70;;;;;;;;;;4998863;28;20128;-63
2022/04/23 07:31:20;;;;;;;0.57;0.57;;;;;;;;;;4998945;28;20133;-62
2022/04/23 07:39:21;;;;;;;5.75;0.65;;;;;;;;;;5000086;28;20148;-63
2022/04/23 07:41:48;;;;;;;1.17;0.50;;;;;;;;;;4999828;28;20041;-63
2022/04/23 07:44:14;;;;;;;1.20;1.10;;;;;;;;;;5000308;28;20681;-63
2022/04/23 07:46:41;;;;;;;3.00;0.60;;;;;;;;;;4998249;28;20568;-63
2022/04/23 07:49:14;;;;;;;1.02;0.40;;;;;;;;;;4998489;28;20154;-63
2022/04/23 07:51:43;;;;;;;3.22;0.60;;;;;;;;;;4997796;28;20054;-63
2022/04/23 07:54:09;;;;;;;3.55;0.40;;;;;;;;;;4998479;28;20133;-64
2022/04/23 07:56:38;;;;;;;3.30;0.80;;;;;;;;;;5001446;28;20141;-64
2022/04/23 07:59:05;;;;;;;0.68;0.68;;;;;;;;;;5000398;28;20152;-63
2022/04/23 08:01:33;;;;;;;2.35;0.50;;;;;;;;;;4999200;28;20510;-63
2022/04/23 08:04:03;;;;;;;;;;;;;;;;;;4997383;28;20053;-64
2022/04/23 08:06:32;;;;;;;5.07;0.60;;;;;;;;;;4999145;28;19925;-64
2022/04/23 08:09:00;;;;;;;3.58;0.80;;;;;;;;;;5003881;28;20117;-64
2022/04/23 08:11:29;;;;;;;0.70;0.40;;;;;;;;;;5003916;28;20046;-65
2022/04/23 08:13:56;;;;;;;0.40;0.40;;;;;;;;;;5001385;28;20495;-64
2022/04/23 08:16:26;;;;;;;1.15;0.63;;;;;;;;;;5000142;28;20104;-64
2022/04/23 08:18:56;;;;;;;1.98;0.65;;;;;;;;;;4997959;28;20052;-64
2022/04/23 08:21:23;;;;;;;4.10;0.50;;;;;;;;;;5003291;28;20057;-64
2022/04/23 08:23:49;;;;;;;2.38;0.60;;;;;;;;;;5001535;28;20089;-64
2022/04/23 08:26:16;;;;;;;3.05;0.55;;;;;;;;;;5001847;28;20108;-64
2022/04/23 08:31:34;;;;;;;1.48;0.60;;;;;;;;;;4999554;28;20057;-63
2022/04/23 08:34:01;;;;;;;1.15;0.40;;;;;;;;;;5000603;28;20048;-63
2022/04/23 08:36:31;;;;;;;0.70;0.50;;;;;;;;;;4999215;28;20165;-63
2022/04/23 08:38:59;;;;;;;1.33;0.60;;;;;;;;;;4999278;28;20156;-63
2022/04/23 08:41:29;;;;;;;0.82;0.50;;;;;;;;;;5002346;28;20140;-63
2022/04/23 08:43:56;;;;;;;1.85;0.80;;;;;;;;;;5000288;28;20525;-63
2022/04/23 08:46:30;;;;;;;0.70;0.70;;;;;;;;;;5001408;28;21053;-63
2022/04/23 08:49:16;;;;;;;6.65;0.82;;;;;;;;;;5003330;28;20046;-63
2022/04/23 08:51:47;;;;;;;0.30;0.30;;;;;;;;;;5000156;28;20045;-63
2022/04/23 08:54:14;;;;;;;0.95;0.52;;;;;;;;;;4999230;28;20039;-64
2022/04/23 08:56:41;;;;;;;0.98;0.88;;;;;;;;;;4983885;28;20104;-63
2022/04/23 08:59:08;;;;;;;;;;;;;;;;;;4997206;28;20053;-63
2022/04/23 09:01:35;;;;;;;1.58;0.45;;;;;;;;;;5001387;28;20020;-63
2022/04/23 09:04:03;;;;;;;1.40;0.60;;;;;;;;;;5000945;28;20054;-61
2022/04/23 09:06:34;;;;;;;4.82;0.70;;;;;;;;;;5002647;28;20092;-62
2022/04/23 09:09:07;;;;;;;5.43;0.77;;;;;;;;;;5002812;28;20077;-63
2022/04/23 09:11:37;;;;;;;1.25;0.65;;;;;;;;;;4998140;28;20437;-63
2022/04/23 09:14:04;;;;;;;3.10;0.70;;;;;;;;;;5002113;28;20057;-63
2022/04/23 09:25:05;;;;;;;2.47;0.77;;;;;;;;;;4999631;28;20097;-61
2022/04/23 09:27:34;;;;;;;1.27;0.57;;;;;;;;;;5002238;28;20149;-63
2022/04/23 09:30:04;;;;;;;1.23;0.52;;;;;;;;;;4998394;28;20141;-61
2022/04/23 09:32:32;;;;;;;1.05;0.38;;;;;;;;;;4995644;28;20470;-61
2022/04/23 09:35:05;;;;;;;0.90;0.57;;;;;;;;;;4999824;28;20116;-63
2022/04/23 09:40:21;;;;;;;1.75;0.50;;;;;;;;;;5000182;28;20133;-61
2022/04/23 09:42:58;;;;;;;1.52;0.50;;;;;;;;;;4999725;28;20045;-61
2022/04/23 09:45:26;;;;;;;3.45;0.50;;;;;;;;;;5000739;28;20085;-61
2022/04/23 09:47:54;;;;;;;1.73;0.60;;;;;;;;;;5001179;28;20133;-61
2022/04/23 09:50:20;;;;;;;0.52;0.50;;;;;;;;;;4999868;28;20574;-62
2022/04/23 09:52:49;;;;;;;3.00;0.73;;;;;;;;;;4997964;28;20138;-64
2022/04/23 09:55:23;;;;;;;2.65;0.30;;;;;;;;;;4996451;28;20129;-64
2022/04/23 09:57:52;;;;;;;1.27;0.70;;;;;;;;;;4997468;28;20061;-61
2022/04/23 10:00:18;;;;;;;0.80;0.45;;;;;;;;;;4996233;28;20077;-63
2022/04/23 10:02:45;;;;;;;4.32;0.98;;;;;;;;;;4999761;28;20137;-64
2022/04/23 10:05:15;;;;;;;1.85;0.47;;;;;;;;;;4998452;28;20498;-63
2022/04/23 10:07:44;;;;;;;0.43;0.40;;;;;;;;;;4996192;28;20101;-64
2022/04/23 10:10:12;;;;;;;0.63;0.30;;;;;;;;;;4996493;28;20146;-64
2022/04/23 10:12:43;;;;;;;2.90;0.80;;;;;;;;;;5001001;28;20086;-64
2022/04/23 10:15:09;;;;;;;;;;;;;;;;;;4999335;28;20121;-64
2022/04/23 10:17:36;;;;;;;0.93;0.43;;;;;;;;;;4994310;28;20277;-64
2022/04/23 10:20:05;;;;;;;2.75;0.63;;;;;;;;;;4996345;28;20064;-64
2022/04/23 10:22:39;;;;;;;2.72;0.40;;;;;;;;;;5001961;28;20081;-63
2022/04/23 10:25:12;;;;;;;0.85;0.60;;;;;;;;;;5000088;28;20557;-64
2022/04/23 10:27:39;;;;;;;5.47;0.70;;;;;;;;;;5000252;28;20048;-63
2022/04/23 10:30:06;;;;;;;1.75;0.60;;;;;;;;;;4991329;28;20089;-63
2022/04/23 10:32:40;;;;;;;1.52;0.60;;;;;;;;;;5001148;28;20089;-64
2022/04/23 10:35:19;;;;;;;1.33;0.47;;;;;;;;;;4995591;28;20141;-64
2022/04/23 10:37:52;;;;;;;5.05;0.63;;;;;;;;;;4999958;28;20054;-64
2022/04/23 10:40:25;;;;;;;4.68;0.50;;;;;;;;;;4998974;28;20145;-64
2022/04/23 10:43:04;;;;;;;1.73;0.40;;;;;;;;;;4998765;28;20129;-64
2022/04/23 10:45:38;;;;;;;3.03;0.57;;;;;;;;;;4997774;28;20586;-64
2022/04/23 10:48:23;;;;;;;2.40;1.05;;;;;;;;;;4998611;28;20057;-63
2022/04/23 10:51:10;;;;;;;0.40;0.40;;;;;;;;;;4996648;28;20113;-64
2022/04/23 10:53:37;;;;;;;0.85;0.40;;;;;;;;;;4994741;28;20046;-64
2022/04/23 10:56:11;;;;;;;0.65;0.57;;;;;;;;;;4995702;28;20073;-64
2022/04/23 10:58:38;;;;;;;0.32;0.32;;;;;;;;;;4998257;28;20482;-64
2022/04/23 11:01:14;;;;;;;0.95;0.50;;;;;;;;;;4995499;28;20097;-64
2022/04/23 11:03:41;;;;;;;2.15;0.75;;;;;;;;;;4998664;28;20104;-64
2022/04/23 11:12:19;;;;;;;2.30;0.80;;;;;;;;;;4998380;28;20153;-63
2022/04/23 11:14:49;;;;;;;2.20;0.70;;;;;;;;;;4999874;28;20485;-62
2022/04/23 11:17:20;;;;;;;3.22;1.38;;;;;;;;;;5000329;28;20054;-63
2022/04/23 11:19:53;;;;;;;2.00;0.32;;;;;;;;;;4997432;28;20494;-62
2022/04/23 11:22:21;;;;;;;1.92;0.57;;;;;;;;;;4997065;28;20135;-63
2022/04/23 11:24:48;;;;;;;1.10;0.55;;;;;;;;;;4991466;28;20074;-63
2022/04/23 11:27:27;;;;;;;1.98;0.70;;;;;;;;;;4999102;28;20089;-63
2022/04/23 11:29:54;;;;;;;2.00;0.50;;;;;;;;;;4999451;28;20070;-63
2022/04/23 11:32:27;;;;;;;2.10;0.47;;;;;;;;;;5005070;28;20252;-63
2022/04/23 11:34:54;;;;;;;1.17;0.47;;;;;;;;;;5004670;28;20132;-65
2022/04/23 11:37:31;;;;;;;2.83;0.50;;;;;;;;;;5001662;28;20131;-63
2022/04/23 11:40:04;;;;;;;1.40;0.50;;;;;;;;;;5002667;28;20088;-65
2022/04/23 11:42:47;;;;;;;4.25;0.70;;;;;;;;;;5001653;28;20635;-63
2022/04/23 11:45:16;;;;;;;2.25;0.68;;;;;;;;;;5004981;28;20074;-63
2022/04/23 11:47:42;;;;;;;1.55;0.60;;;;;;;;;;4998547;28;20054;-63
2022/04/23 11:50:13;;;;;;;0.77;0.50;;;;;;;;;;5001534;28;20137;-63
2022/04/23 11:52:41;;;;;;;4.60;0.57;;;;;;;;;;5003298;28;20060;-64
2022/04/23 11:55:24;;;;;;;3.15;0.43;;;;;;;;;;5004570;28;20074;-64
2022/04/23 11:58:11;;;;;;;2.35;0.52;;;;;;;;;;4999804;28;20058;-64
2022/04/23 12:00:38;;;;;;;3.88;0.75;;;;;;;;;;5005300;28;20092;-63
2022/04/23 12:03:06;;;;;;;0.98;0.43;;;;;;;;;;4990733;28;20840;-64
2022/04/23 12:05:32;;;;;;;5.03;0.70;;;;;;;;;;5001543;28;20678;-64
2022/04/23 12:07:59;;;;;;;1.05;0.50;;;;;;;;;;5001874;28;20560;-64
2022/04/23 12:10:28;;;;;;;1.30;0.60;;;;;;;;;;5000019;28;20134;-63
2022/04/23 12:13:06;;;;;;;1.20;0.65;;;;;;;;;;5003823;28;20133;-63
2022/04/23 12:15:33;;;;;;;;;;;;;;;;;;5006550;28;20671;-64
2022/04/23 12:17:59;;;;;;;1.33;0.50;;;;;;;;;;4999346;28;20019;-64
2022/04/23 12:20:27;;;;;;;0.65;0.57;;;;;;;;;;5001911;28;20145;-63
2022/04/23 12:23:05;;;;;;;3.25;0.60;;;;;;;;;;4996995;28;20074;-63
2022/04/23 12:25:35;;;;;;;0.93;0.65;;;;;;;;;;5004061;28;20077;-64
2022/04/23 12:42:03;;;;;;;3.53;1.15;;;;;;;;;;4999202;28;20073;-65
2022/04/23 12:44:32;;;;;;;1.70;0.85;;;;;;;;;;4997597;28;20526;-64
2022/04/23 12:46:59;;;;;;;5.13;0.80;;;;;;;;;;5000211;28;20104;-64
2022/04/23 12:49:45;;;;;;;0.73;0.70;;;;;;;;;;5001202;28;20088;-63
2022/04/23 12:52:14;;;;;;;1.52;0.60;;;;;;;;;;5002742;28;20057;-63
2022/04/23 12:54:40;;;;;;;1.23;0.82;;;;;;;;;;5004321;28;20077;-64
2022/04/23 12:57:13;;;;;;;2.45;0.70;;;;;;;;;;4999289;28;20478;-63
2022/04/23 12:59:41;;;;;;;4.35;0.75;;;;;;;;;;4999466;28;20640;-64
2022/04/23 13:02:07;;;;;;;7.45;0.50;;;;;;;;;;4999611;28;20052;-64
2022/04/23 13:04:34;;;;;;;1.83;0.80;;;;;;;;;;5004765;28;20490;-64
2022/04/23 13:09:46;;;;;;;5.43;1.05;;;;;;;;;;5000164;28;22483;-64
2022/04/23 13:12:13;;;;;;;1.52;0.90;;;;;;;;;;4999520;28;20057;-64
2022/04/23 13:14:41;;;;;;;1.98;0.80;;;;;;;;;;5002203;28;20462;-64
2022/04/23 13:17:08;;;;;;;3.83;0.93;;;;;;;;;;4998974;28;20505;-64
2022/04/23 13:19:38;;;;;;;3.50;0.90;;;;;;;;;;5003608;28;20524;-64
2022/04/23 13:22:04;;;;;;;0.93;0.80;;;;;;;;;;4999757;28;20120;-64
2022/04/23 13:24:33;;;;;;;2.03;0.80;;;;;;;;;;5000476;28;20046;-65
2022/04/23 13:27:01;;;;;;;0.60;0.60;;;;;;;;;;4998694;28;20685;-64
2022/04/23 13:29:27;;;;;;;1.50;0.77;;;;;;;;;;4999799;28;20144;-64
2022/04/23 13:31:54;;;;;;;0.93;0.63;;;;;;;;;;4999124;28;20054;-64
2022/04/23 13:34:20;;;;;;;3.17;0.85;;;;;;;;;;4997552;28;20208;-64
2022/04/23 13:36:47;;;;;;;1.83;0.70;;;;;;;;;;5002208;28;20058;-64
2022/04/23 13:39:13;;;;;;;3.10;1.08;;;;;;;;;;4999490;28;20557;-64
2022/04/23 13:41:40;;;;;;;4.80;0.77;;;;;;;;;;4997108;28;20137;-64
2022/04/23 13:44:07;;;;;;;0.93;0.55;;;;;;;;;;4999885;28;20747;-64
2022/04/23 13:46:36;;;;;;;5.03;1.00;;;;;;;;;;4999658;28;20085;-64
2022/04/23 13:49:03;;;;;;;1.58;0.70;;;;;;;;;;4986137;28;20104;-64
2022/04/23 13:51:30;;;;;;;5.22;0.90;;;;;;;;;;4999649;28;20141;-64
2022/04/23 13:53:56;;;;;;;1.85;0.55;;;;;;;;;;4997049;28;20646;-64
2022/04/23 13:56:23;;;;;;;1.30;0.80;;;;;;;;;;5002441;28;20052;-64
2022/04/23 13:58:49;;;;;;;1.15;0.93;;;;;;;;;;5000328;28;20137;-64
2022/04/23 14:01:16;;;;;;;0.88;0.85;;;;;;;;;;5000609;28;20133;-64
2022/04/23 14:10:04;;;;;;;0.60;0.60;;;;;;;;;;5000264;28;20477;-64
2022/04/23 14:12:16;;;;;;;1.77;0.70;;;;;;;;;;4998289;28;20136;-64
2022/04/23 14:14:42;;;;;;;2.23;1.00;;;;;;;;;;4996023;28;20046;-64
2022/04/23 14:17:09;;;;;;;5.05;1.02;;;;;;;;;;4997840;28;20054;-64
2022/04/23 14:19:35;;;;;;;3.03;0.80;;;;;;;;;;4995477;28;20077;-64
2022/04/23 14:22:08;;;;;;;3.63;0.73;;;;;;;;;;4998996;28;20054;-64
2022/04/23 14:24:35;;;;;;;1.15;0.88;;;;;;;;;;4994917;28;20550;-64
2022/04/23 14:27:01;;;;;;;1.85;0.80;;;;;;;;;;4995980;28;20568;-64
2022/04/23 14:29:30;;;;;;;1.95;0.90;;;;;;;;;;4997359;28;20484;-64
2022/04/23 14:31:57;;;;;;;0.80;0.70;;;;;;;;;;4998394;28;20141;-64
2022/04/23 14:34:23;;;;;;;2.58;1.00;;;;;;;;;;5000002;28;20568;-64
2022/04/23 14:36:51;;;;;;;0.93;0.75;;;;;;;;;;4999674;28;20144;-64
2022/04/23 14:39:18;;;;;;;2.40;0.88;;;;;;;;;;4997568;28;20141;-64
2022/04/23 14:41:44;;;;;;;2.63;1.15;;;;;;;;;;5001287;28;20485;-63
2022/04/23 14:44:12;;;;;;;3.83;1.08;;;;;;;;;;4998071;28;20074;-64
2022/04/23 14:46:39;;;;;;;2.65;0.80;;;;;;;;;;5000025;28;20089;-63
2022/04/23 14:49:05;;;;;;;1.95;0.50;;;;;;;;;;5000036;28;20066;-63
2022/04/23 14:54:18;;;;;;;1.92;0.82;;;;;;;;;;4995578;28;20140;-64
2022/04/23 14:56:46;;;;;;;4.95;1.02;;;;;;;;;;4978142;28;20165;-64
2022/04/23 14:59:13;;;;;;;3.40;0.68;;;;;;;;;;4995615;28;20153;-63
2022/04/23 15:01:40;;;;;;;2.13;1.00;;;;;;;;;;4997815;28;20562;-63
2022/04/23 15:04:11;;;;;;;2.63;0.73;;;;;;;;;;4996449;28;20046;-64
2022/04/23 15:06:40;;;;;;;1.95;1.05;;;;;;;;;;4993875;28;20056;-63
2022/04/23 15:09:08;;;;;;;2.28;0.68;;;;;;;;;;4996402;28;20046;-63
2022/04/23 15:11:35;;;;;;;;;;;;;;;;;;4999259;28;20525;-63
2022/04/23 15:14:01;;;;;;;4.05;0.93;;;;;;;;;;4999357;28;20467;-63
2022/04/23 15:16:31;;;;;;;1.17;0.93;;;;;;;;;;4997257;28;20141;-63
2022/04/23 15:18:58;;;;;;;5.13;1.00;;;;;;;;;;4996811;28;20051;-63
2022/04/23 15:21:24;;;;;;;3.15;0.85;;;;;;;;;;4994441;28;20149;-64
2022/04/23 15:23:52;;;;;;;;;;;;;;;;;;4995802;28;20502;-64
2022/04/23 15:26:18;;;;;;;1.33;0.80;;;;;;;;;;4997725;28;20316;-63
2022/04/23 15:28:45;;;;;;;2.30;0.90;;;;;;;;;;5003428;28;20105;-64
2022/04/23 15:31:11;;;;;;;1.05;0.80;;;;;;;;;;4997880;28;20133;-64
2022/04/23 15:33:41;;;;;;;3.05;0.95;;;;;;;;;;4997502;28;20058;-63
2022/04/23 15:36:07;;;;;;;4.68;0.80;;;;;;;;;;4998460;28;20078;-63
2022/04/23 15:38:34;;;;;;;1.73;0.93;;;;;;;;;;4993886;28;20887;-64
2022/04/23 15:41:00;;;;;;;8.50;0.98;;;;;;;;;;4997410;28;20469;-63
2022/04/23 15:43:27;;;;;;;5.15;1.13;;;;;;;;;;4996520;28;20536;-63
2022/04/23 15:45:56;;;;;;;6.60;1.00;;;;;;;;;;4995944;28;20142;-64
2022/04/23 15:48:23;;;;;;;1.35;0.90;;;;;;;;;;4991636;28;20152;-64
2022/04/23 15:50:50;;;;;;;3.08;0.70;;;;;;;;;;4997022;28;20169;-63